Time;durP1;ratioP1;P1;durP2;ratioP2;P2;SDS_P1;SDS_P2;PMS_P1;PMS_P2;Temp;Humidity;BMP_temperature;BMP_pressure;BME280_temperature;BME280_humidity;BME280_pressure;Samples;Min_cycle;Max_cycle;Signal;HPM_P1;HPM_P2
2021/05/29 00:00:45;;;;;;;18.85;14.88;;;;;;;12.50;69.57;100271.00;5124506;28;20054;-74
2021/05/29 00:03:11;;;;;;;17.10;13.70;;;;;;;12.53;69.41;100274.25;5106388;28;20047;-76
2021/05/29 00:05:38;;;;;;;16.38;12.90;;;;;;;12.52;69.32;100272.56;5124828;28;20050;-72
2021/05/29 00:08:05;;;;;;;16.33;12.98;;;;;;;12.41;69.59;100267.28;5124242;28;20081;-74
2021/05/29 00:10:31;;;;;;;18.95;14.82;;;;;;;12.40;69.56;100282.31;5125397;28;20043;-75
2021/05/29 00:12:57;;;;;;;16.35;13.13;;;;;;;12.35;69.57;100284.53;5126314;28;20054;-75
2021/05/29 00:15:25;;;;;;;20.15;15.32;;;;;;;12.25;70.01;100280.91;5134697;28;20040;-75
2021/05/29 00:17:51;;;;;;;18.40;14.88;;;;;;;12.19;70.13;100282.22;5124903;27;20493;-75
2021/05/29 00:20:17;;;;;;;17.77;15.27;;;;;;;12.14;70.12;100273.81;5143763;27;20058;-75
2021/05/29 00:22:44;;;;;;;19.80;14.48;;;;;;;12.11;70.04;100278.50;5132192;27;20043;-77
2021/05/29 00:25:11;;;;;;;15.65;12.55;;;;;;;12.06;70.23;100281.50;5129854;27;20047;-76
2021/05/29 00:27:37;;;;;;;20.20;15.52;;;;;;;12.04;70.12;100283.44;5128079;27;20039;-75
2021/05/29 00:30:04;;;;;;;18.67;14.48;;;;;;;11.98;70.09;100287.41;5127603;27;20043;-74
2021/05/29 00:32:31;;;;;;;17.67;14.05;;;;;;;11.95;70.05;100279.69;5128403;27;20599;-75
2021/05/29 00:34:57;;;;;;;17.70;15.30;;;;;;;11.88;70.19;100283.75;5128917;27;20046;-76
2021/05/29 00:37:23;;;;;;;17.10;12.52;;;;;;;11.93;69.83;100273.69;5128130;27;20051;-75
2021/05/29 00:39:50;;;;;;;14.85;11.60;;;;;;;11.95;69.73;100271.75;5128671;27;20043;-74
2021/05/29 00:42:16;;;;;;;14.90;12.02;;;;;;;11.92;69.88;100279.94;5120068;27;20047;-74
2021/05/29 00:44:50;;;;;;;16.90;13.45;;;;;;;11.92;70.06;100260.56;5127596;27;20055;-75
2021/05/29 00:47:19;;;;;;;15.68;11.73;;;;;;;11.90;69.98;100273.91;5129134;27;20609;-75
2021/05/29 00:49:46;;;;;;;14.40;11.13;;;;;;;11.92;69.75;100265.84;5128437;27;20075;-74
2021/05/29 00:52:14;;;;;;;14.00;11.32;;;;;;;11.89;69.83;100269.56;5128362;27;20131;-75
2021/05/29 00:54:40;;;;;;;14.45;10.60;;;;;;;11.91;69.78;100264.19;5128404;27;20051;-73
2021/05/29 00:57:07;;;;;;;17.25;13.18;;;;;;;11.87;70.00;100266.19;5128053;27;20043;-75
2021/05/29 00:59:34;;;;;;;20.25;12.20;;;;;;;11.89;69.63;100255.50;5127802;27;20043;-75
2021/05/29 01:02:00;;;;;;;16.17;12.07;;;;;;;11.88;69.64;100264.38;5128901;27;20066;-74
2021/05/29 01:04:26;;;;;;;16.20;12.30;;;;;;;11.86;69.63;100267.13;5128218;27;20050;-74
2021/05/29 01:06:55;;;;;;;17.10;11.82;;;;;;;11.84;69.76;100263.78;5128388;27;20073;-74
2021/05/29 01:09:21;;;;;;;19.20;11.70;;;;;;;11.81;69.67;100266.66;5128574;27;20046;-75
2021/05/29 01:11:47;;;;;;;16.85;12.82;;;;;;;11.72;69.97;100262.06;5127190;27;20058;-74
2021/05/29 01:14:13;;;;;;;15.48;11.63;;;;;;;11.70;69.87;100267.47;5126381;27;20039;-75
2021/05/29 01:16:45;;;;;;;15.77;11.50;;;;;;;11.69;69.88;100272.91;5128915;27;20157;-76
2021/05/29 01:19:13;;;;;;;17.40;12.68;;;;;;;11.66;70.05;100272.16;5127748;27;20043;-75
2021/05/29 01:21:40;;;;;;;18.63;12.93;;;;;;;11.61;70.00;100274.34;5128835;27;20047;-74
2021/05/29 01:24:08;;;;;;;20.80;13.88;;;;;;;11.59;70.01;100276.25;5128431;27;20532;-74
2021/05/29 01:26:35;;;;;;;19.10;14.18;;;;;;;11.60;70.18;100277.94;5127530;27;20047;-75
2021/05/29 01:29:01;;;;;;;19.40;14.40;;;;;;;11.67;69.94;100276.50;5110790;27;20069;-74
2021/05/29 01:31:30;;;;;;;17.30;13.40;;;;;;;11.73;69.80;100282.28;5109837;27;20043;-75
2021/05/29 01:33:58;;;;;;;19.75;14.20;;;;;;;11.72;69.83;100284.09;5127384;27;20047;-76
2021/05/29 01:36:25;;;;;;;16.25;11.68;;;;;;;11.73;69.72;100277.00;5129080;27;20087;-74
2021/05/29 01:38:52;;;;;;;14.05;12.07;;;;;;;11.75;69.56;100270.63;5127592;27;20456;-75
2021/05/29 01:41:22;;;;;;;17.80;12.77;;;;;;;11.75;69.36;100269.78;5126667;27;20050;-75
2021/05/29 01:43:50;;;;;;;18.00;12.82;;;;;;;11.72;69.38;100270.88;5126379;27;20222;-75
2021/05/29 01:46:19;;;;;;;17.58;12.57;;;;;;;11.71;69.43;100271.81;5127341;27;20047;-75
2021/05/29 01:48:47;;;;;;;16.38;13.93;;;;;;;11.66;69.38;100269.53;5126966;27;20043;-75
2021/05/29 01:51:15;;;;;;;17.58;11.55;;;;;;;11.59;69.29;100265.66;5132412;27;20055;-73
2021/05/29 01:53:44;;;;;;;18.38;12.13;;;;;;;11.51;69.57;100272.53;5136003;27;20091;-74
2021/05/29 01:56:10;;;;;;;15.18;12.95;;;;;;;11.41;69.78;100261.78;5128990;27;20043;-73
2021/05/29 01:58:40;;;;;;;16.15;12.10;;;;;;;11.35;70.09;100262.25;5127518;27;20047;-74
2021/05/29 02:01:08;;;;;;;16.73;12.50;;;;;;;11.29;70.04;100264.41;5127633;27;20035;-74
2021/05/29 02:03:35;;;;;;;19.42;13.43;;;;;;;11.24;69.91;100261.25;5127708;27;20043;-73
2021/05/29 02:06:02;;;;;;;18.10;12.20;;;;;;;11.20;69.97;100259.81;5127624;27;20593;-73
2021/05/29 02:08:29;;;;;;;17.65;13.30;;;;;;;11.17;70.12;100260.03;5126751;27;20051;-73
2021/05/29 02:10:55;;;;;;;23.45;14.48;;;;;;;11.12;70.21;100269.25;5126905;27;20039;-73
2021/05/29 02:13:24;;;;;;;18.73;12.30;;;;;;;11.08;70.32;100266.84;5125854;27;20051;-72
2021/05/29 02:15:52;;;;;;;18.55;13.85;;;;;;;11.05;70.27;100269.72;5128228;27;20051;-73
2021/05/29 02:18:18;;;;;;;17.92;12.57;;;;;;;11.03;70.16;100270.78;5128232;27;20308;-73
2021/05/29 02:20:46;;;;;;;17.25;13.48;;;;;;;10.99;70.16;100270.16;5138641;27;20599;-74
2021/05/29 02:23:14;;;;;;;21.98;14.63;;;;;;;10.94;70.23;100268.84;5133847;27;20062;-75
2021/05/29 02:25:41;;;;;;;22.77;17.55;;;;;;;10.89;70.41;100280.59;5128516;27;20046;-73
2021/05/29 02:28:09;;;;;;;42.47;27.65;;;;;;;10.86;70.20;100282.63;5129472;27;20059;-74
2021/05/29 02:30:36;;;;;;;48.00;30.67;;;;;;;10.92;70.47;100283.97;5129984;27;20054;-74
2021/05/29 02:33:05;;;;;;;44.55;27.55;;;;;;;10.98;70.27;100284.31;5127438;27;20054;-74
2021/05/29 02:35:32;;;;;;;35.83;23.48;;;;;;;11.08;69.68;100281.88;5127697;27;20050;-74
2021/05/29 02:37:58;;;;;;;32.22;23.38;;;;;;;11.15;69.79;100290.19;5126540;27;20115;-74
2021/05/29 02:40:25;;;;;;;27.48;22.85;;;;;;;11.19;69.64;100289.84;5126611;27;20479;-74
2021/05/29 02:42:52;;;;;;;28.27;21.67;;;;;;;11.17;69.60;100286.47;5125475;27;20054;-75
2021/05/29 02:45:18;;;;;;;27.70;22.05;;;;;;;11.20;69.60;100283.59;5128133;27;20129;-75
2021/05/29 02:47:45;;;;;;;25.35;19.80;;;;;;;11.20;69.65;100291.53;5128681;27;20060;-74
2021/05/29 02:50:14;;;;;;;23.75;18.85;;;;;;;11.23;69.49;100288.63;5135314;27;20096;-73
2021/05/29 02:52:41;;;;;;;25.58;20.13;;;;;;;11.26;69.48;100288.41;5128869;27;20609;-75
2021/05/29 02:55:11;;;;;;;24.27;16.65;;;;;;;11.25;69.66;100289.41;5129445;27;20047;-74
2021/05/29 02:57:38;;;;;;;22.92;17.70;;;;;;;11.28;69.70;100286.50;5128575;27;20058;-73
2021/05/29 03:00:07;;;;;;;23.00;18.00;;;;;;;11.27;69.70;100295.41;5126932;27;20054;-73
2021/05/29 03:02:33;;;;;;;22.70;16.95;;;;;;;11.19;70.16;100292.47;5126988;27;20058;-74
2021/05/29 03:04:59;;;;;;;20.75;17.55;;;;;;;11.17;70.39;100297.03;5127246;27;20058;-74
2021/05/29 03:07:27;;;;;;;23.83;17.63;;;;;;;11.17;70.25;100302.31;5127752;27;20142;-74
2021/05/29 03:09:54;;;;;;;22.27;16.88;;;;;;;11.16;70.33;100300.63;5127655;27;20047;-74
2021/05/29 03:12:20;;;;;;;18.20;15.00;;;;;;;11.19;70.23;100295.13;5128180;27;20073;-75
2021/05/29 03:14:46;;;;;;;21.92;15.23;;;;;;;11.23;69.96;100301.84;5129014;28;20507;-74
2021/05/29 03:17:13;;;;;;;21.00;14.60;;;;;;;11.18;69.93;100298.75;5110990;28;20047;-74
2021/05/29 03:19:40;;;;;;;23.35;14.98;;;;;;;11.11;70.21;100302.78;5133867;27;20119;-75
2021/05/29 03:22:06;;;;;;;23.33;17.13;;;;;;;11.06;70.20;100300.47;5134302;28;20058;-75
2021/05/29 03:24:33;;;;;;;28.17;17.20;;;;;;;11.01;70.24;100304.41;5131075;28;20040;-75
2021/05/29 03:27:01;;;;;;;28.83;18.23;;;;;;;10.95;70.33;100300.44;5131363;28;20617;-75
2021/05/29 03:29:27;;;;;;;23.98;18.67;;;;;;;10.87;70.43;100303.63;5134258;27;20039;-75
2021/05/29 03:31:54;;;;;;;30.33;20.70;;;;;;;10.82;70.55;100300.50;5136498;28;20156;-75
2021/05/29 03:34:20;;;;;;;29.20;22.15;;;;;;;10.79;70.66;100310.44;5139594;27;20043;-76
2021/05/29 03:36:46;;;;;;;39.17;23.25;;;;;;;10.76;70.61;100308.84;5140055;28;20076;-74
2021/05/29 03:39:12;;;;;;;30.33;23.10;;;;;;;10.70;70.92;100306.66;5140908;27;20047;-75
2021/05/29 03:41:40;;;;;;;30.30;19.52;;;;;;;10.70;70.80;100301.38;5146093;27;20080;-74
2021/05/29 03:44:06;;;;;;;31.23;21.77;;;;;;;10.72;70.68;100307.38;5142811;27;20055;-74
2021/05/29 03:46:32;;;;;;;29.30;20.92;;;;;;;10.70;70.68;100299.56;5145534;28;20601;-74
2021/05/29 03:48:59;;;;;;;30.30;20.02;;;;;;;10.70;70.80;100298.72;5150959;27;20047;-74
2021/05/29 03:51:25;;;;;;;31.20;22.13;;;;;;;10.67;71.03;100301.59;5145025;28;20039;-75
2021/05/29 03:53:51;;;;;;;27.42;19.98;;;;;;;10.65;71.41;100295.56;5148294;27;20032;-73
2021/05/29 03:56:18;;;;;;;28.77;19.25;;;;;;;10.67;71.12;100296.31;5154316;27;20050;-75
2021/05/29 03:58:45;;;;;;;23.52;19.42;;;;;;;10.68;71.15;100292.72;5152602;27;20023;-73
2021/05/29 04:01:12;;;;;;;22.17;16.38;;;;;;;10.72;71.06;100299.47;5143283;27;20051;-74
2021/05/29 04:03:38;;;;;;;23.48;18.25;;;;;;;10.85;70.62;100299.41;5136058;27;20483;-73
2021/05/29 04:06:05;;;;;;;29.10;22.45;;;;;;;10.90;70.53;100297.28;5140112;27;20067;-74
2021/05/29 04:08:31;;;;;;;23.63;17.45;;;;;;;11.03;70.48;100299.88;5118657;27;20522;-75
2021/05/29 04:11:04;;;;;;;23.15;17.05;;;;;;;11.20;70.02;100298.59;5134625;27;20040;-73
2021/05/29 04:13:31;;;;;;;26.10;17.17;;;;;;;11.44;69.47;100298.59;5102733;28;20130;-74
2021/05/29 04:15:58;;;;;;;25.40;17.20;;;;;;;11.61;69.02;100294.66;5127480;28;20702;-74
2021/05/29 04:18:24;;;;;;;22.63;19.55;;;;;;;11.92;68.41;100302.91;5125872;28;20044;-73
2021/05/29 04:20:51;;;;;;;19.52;16.00;;;;;;;12.21;67.85;100295.34;5115372;28;20104;-74
2021/05/29 04:23:18;;;;;;;18.35;13.85;;;;;;;12.59;66.86;100288.81;5118498;28;20044;-75
2021/05/29 04:25:44;;;;;;;17.80;13.32;;;;;;;12.91;65.84;100290.63;5098774;28;20687;-75
2021/05/29 04:28:10;;;;;;;17.45;14.32;;;;;;;13.13;65.25;100290.56;5114672;28;20066;-75
2021/05/29 04:30:37;;;;;;;19.23;14.60;;;;;;;13.19;64.42;100290.06;5118327;28;20055;-74
2021/05/29 04:33:04;;;;;;;21.02;15.63;;;;;;;13.24;64.19;100291.50;5118436;28;20048;-75
2021/05/29 04:35:31;;;;;;;20.67;15.95;;;;;;;13.30;63.78;100301.59;5119746;28;20049;-75
2021/05/29 04:37:57;;;;;;;18.58;14.43;;;;;;;13.31;63.60;100298.84;5111743;28;20044;-75
2021/05/29 04:40:26;;;;;;;19.95;14.38;;;;;;;13.43;63.30;100294.31;5112503;28;20036;-74
2021/05/29 04:42:53;;;;;;;19.33;15.43;;;;;;;13.46;63.06;100296.72;5109392;28;20667;-74
2021/05/29 04:45:20;;;;;;;18.65;16.25;;;;;;;13.41;62.75;100298.91;5111150;28;20070;-73
2021/05/29 04:47:47;;;;;;;18.58;15.18;;;;;;;13.35;63.03;100294.97;5114176;28;20159;-75
2021/05/29 04:50:15;;;;;;;17.30;14.70;;;;;;;13.33;62.94;100291.59;5112203;28;20052;-74
2021/05/29 04:52:42;;;;;;;17.85;15.40;;;;;;;13.29;62.82;100290.16;5114166;28;20047;-75
2021/05/29 04:55:09;;;;;;;17.13;13.43;;;;;;;13.23;62.63;100293.28;5112513;28;20047;-74
2021/05/29 05:00:19;;;;;;;16.73;14.63;;;;;;;13.53;62.03;100283.78;5111792;28;20048;-75
2021/05/29 05:02:46;;;;;;;20.33;15.65;;;;;;;13.41;62.25;100298.06;5110352;28;20039;-76
2021/05/29 05:05:13;;;;;;;20.70;15.15;;;;;;;13.48;62.42;100297.44;5110398;28;20055;-74
2021/05/29 05:07:41;;;;;;;18.25;15.05;;;;;;;13.63;62.06;100300.63;5110558;28;20058;-76
2021/05/29 05:10:09;;;;;;;18.40;15.43;;;;;;;13.59;61.92;100301.81;5091744;28;20139;-74
2021/05/29 05:12:36;;;;;;;18.23;15.60;;;;;;;13.43;61.80;100301.44;5108535;28;20637;-74
2021/05/29 05:15:04;;;;;;;19.15;16.10;;;;;;;13.37;62.04;100308.09;5108479;28;20043;-75
2021/05/29 05:17:31;;;;;;;20.38;15.30;;;;;;;13.37;62.19;100314.25;5107735;28;20044;-76
2021/05/29 05:19:57;;;;;;;21.55;16.20;;;;;;;13.48;62.27;100320.47;5109023;28;20051;-75
2021/05/29 05:22:24;;;;;;;19.30;17.20;;;;;;;13.52;61.95;100317.44;5107839;28;20097;-73
2021/05/29 05:24:51;;;;;;;23.17;20.55;;;;;;;13.45;62.00;100310.09;5107463;28;20050;-74
2021/05/29 05:27:17;;;;;;;23.58;19.23;;;;;;;13.82;61.37;100320.28;5107340;28;20268;-75
2021/05/29 05:29:43;;;;;;;22.65;19.42;;;;;;;13.85;60.67;100318.22;5107949;28;20090;-76
2021/05/29 05:32:10;;;;;;;23.75;19.60;;;;;;;13.60;61.06;100319.44;5106870;28;20047;-75
2021/05/29 05:34:37;;;;;;;24.17;20.02;;;;;;;13.51;61.49;100318.41;5107378;28;20120;-77
2021/05/29 05:37:07;;;;;;;25.73;20.73;;;;;;;13.38;61.87;100325.72;5079370;28;20043;-75
2021/05/29 05:39:33;;;;;;;24.20;20.50;;;;;;;13.41;61.64;100327.25;5108406;28;20091;-76
2021/05/29 05:42:01;;;;;;;24.48;19.75;;;;;;;13.36;61.25;100335.59;5109411;28;20051;-77
2021/05/29 05:44:27;;;;;;;20.98;16.98;;;;;;;13.44;61.01;100334.97;5107266;28;20047;-74
2021/05/29 05:46:53;;;;;;;23.42;18.75;;;;;;;13.25;60.81;100331.13;5109098;28;20487;-76
2021/05/29 05:49:20;;;;;;;22.35;20.00;;;;;;;13.01;61.25;100334.00;5109522;28;20118;-74
2021/05/29 05:51:46;;;;;;;24.13;18.80;;;;;;;12.74;61.90;100331.78;5110250;28;20059;-75
2021/05/29 05:54:13;;;;;;;21.42;17.20;;;;;;;12.53;62.51;100334.31;5106345;28;20059;-74
2021/05/29 05:56:39;;;;;;;24.50;19.63;;;;;;;12.50;63.00;100330.13;5105780;28;20059;-75
2021/05/29 05:59:07;;;;;;;22.52;18.00;;;;;;;12.74;62.29;100342.38;5106984;28;20051;-76
2021/05/29 06:01:34;;;;;;;23.52;18.67;;;;;;;13.04;61.67;100344.38;5106479;28;20044;-75
2021/05/29 06:04:00;;;;;;;21.38;17.60;;;;;;;13.59;60.18;100338.97;5110746;28;20043;-74
2021/05/29 06:06:26;;;;;;;21.08;17.17;;;;;;;13.76;59.26;100335.75;5111221;28;20031;-74
2021/05/29 06:09:17;;;;;;;20.67;15.25;;;;;;;13.64;58.95;100338.59;5110007;28;20044;-75
2021/05/29 06:11:44;;;;;;;17.88;12.77;;;;;;;13.72;58.17;100338.78;5060312;28;20060;-74
2021/05/29 06:19:49;;;;;;;19.60;15.20;;;;;;;14.16;57.79;100331.50;5065299;28;20638;-73
2021/05/29 06:22:15;;;;;;;20.55;15.55;;;;;;;14.19;57.29;100333.91;5066570;28;20055;-77
2021/05/29 06:24:42;;;;;;;19.35;14.82;;;;;;;14.01;57.04;100338.13;5064736;28;20052;-74
2021/05/29 06:27:08;;;;;;;18.45;14.40;;;;;;;14.72;56.08;100335.53;5065954;28;20514;-75
2021/05/29 06:29:35;;;;;;;19.88;15.48;;;;;;;14.90;55.68;100330.38;5062503;28;20052;-77
2021/05/29 06:32:03;;;;;;;17.25;14.73;;;;;;;14.96;55.20;100331.66;5063889;28;20410;-75
2021/05/29 06:34:29;;;;;;;22.00;16.60;;;;;;;14.83;54.37;100335.41;5060857;28;20060;-75
2021/05/29 06:36:55;;;;;;;22.23;16.05;;;;;;;14.78;54.52;100334.13;5081746;28;20052;-76
2021/05/29 06:39:22;;;;;;;24.52;16.67;;;;;;;14.96;54.61;100343.13;5086711;28;20048;-75
2021/05/29 06:41:49;;;;;;;21.00;15.93;;;;;;;15.13;53.87;100330.16;5086802;28;20135;-75
2021/05/29 06:44:15;;;;;;;19.50;16.00;;;;;;;15.32;53.11;100330.13;5098021;28;20032;-76
2021/05/29 06:46:43;;;;;;;22.25;15.45;;;;;;;15.22;53.12;100329.31;5086527;28;20048;-73
2021/05/29 06:49:10;;;;;;;19.63;14.35;;;;;;;15.02;53.89;100334.59;5085845;28;20048;-75
2021/05/29 06:51:41;;;;;;;18.67;15.48;;;;;;;15.03;53.96;100338.94;5085900;28;20051;-73
2021/05/29 06:54:14;;;;;;;19.23;16.48;;;;;;;15.12;53.55;100331.09;5086113;28;20062;-74
2021/05/29 06:59:24;;;;;;;17.77;13.45;;;;;;;15.25;52.57;100343.16;5085191;28;20055;-73
2021/05/29 07:01:52;;;;;;;16.67;12.55;;;;;;;15.16;52.82;100335.16;5087658;28;20059;-75
2021/05/29 07:04:18;;;;;;;22.17;16.10;;;;;;;15.24;53.19;100335.31;5085431;28;20068;-75
2021/05/29 07:06:45;;;;;;;22.40;16.73;;;;;;;15.35;53.34;100339.66;5085643;28;20052;-77
2021/05/29 07:09:12;;;;;;;27.92;18.25;;;;;;;15.19;53.01;100335.72;5083594;28;20052;-74
2021/05/29 07:11:40;;;;;;;22.67;13.88;;;;;;;15.18;53.51;100341.19;5091121;28;20096;-77
2021/05/29 07:14:06;;;;;;;20.80;13.90;;;;;;;15.10;53.18;100337.41;5103094;28;20134;-75
2021/05/29 07:16:34;;;;;;;15.38;10.98;;;;;;;14.88;53.82;100337.66;5103647;28;20043;-75
2021/05/29 07:19:02;;;;;;;20.13;15.90;;;;;;;14.80;54.12;100332.16;5103775;28;20050;-75
2021/05/29 07:21:29;;;;;;;15.43;13.45;;;;;;;14.65;54.42;100334.38;5122054;28;20575;-75
2021/05/29 07:23:56;;;;;;;15.00;11.45;;;;;;;14.74;54.27;100335.38;5126139;28;20167;-75
2021/05/29 07:26:22;;;;;;;12.60;10.30;;;;;;;14.70;53.27;100335.66;5125313;28;20058;-74
2021/05/29 07:28:48;;;;;;;10.15;8.98;;;;;;;14.78;53.59;100332.31;5128547;27;20054;-76
2021/05/29 07:31:14;;;;;;;12.43;7.88;;;;;;;14.94;53.21;100331.78;5128346;27;20091;-76
2021/05/29 07:33:43;;;;;;;13.68;10.60;;;;;;;15.16;52.64;100319.22;5127969;27;20062;-75
2021/05/29 07:36:10;;;;;;;13.13;8.80;;;;;;;15.18;52.31;100322.56;5128456;27;20134;-76
2021/05/29 07:38:37;;;;;;;13.43;9.88;;;;;;;15.46;51.52;100324.38;5129765;27;20482;-74
2021/05/29 07:41:03;;;;;;;10.18;9.15;;;;;;;15.93;49.41;100334.28;5126448;27;20054;-74
2021/05/29 07:43:29;;;;;;;9.00;7.18;;;;;;;16.21;48.26;100329.03;5127175;27;20513;-75
2021/05/29 07:45:56;;;;;;;8.43;6.90;;;;;;;16.53;48.05;100325.94;5128633;27;20688;-76
2021/05/29 07:48:22;;;;;;;9.35;7.43;;;;;;;16.52;47.74;100334.94;5131076;27;20100;-75
2021/05/29 07:50:58;;;;;;;12.57;9.98;;;;;;;16.19;49.17;100323.84;5128712;27;20101;-77
2021/05/29 07:53:26;;;;;;;15.10;9.65;;;;;;;15.72;50.58;100337.13;5127267;27;20690;-76
2021/05/29 07:55:53;;;;;;;12.60;10.73;;;;;;;15.53;51.34;100329.16;5128532;27;20070;-77
2021/05/29 07:58:20;;;;;;;16.20;12.00;;;;;;;15.38;51.75;100334.91;5131397;27;20129;-75
2021/05/29 08:00:50;;;;;;;13.43;11.10;;;;;;;15.28;51.99;100329.56;5131612;27;20058;-76
2021/05/29 08:03:17;;;;;;;17.52;13.48;;;;;;;15.40;52.06;100332.09;5132174;27;20039;-74
2021/05/29 08:05:44;;;;;;;22.35;12.13;;;;;;;15.46;51.21;100327.03;5111363;27;20650;-75
2021/05/29 08:08:10;;;;;;;15.50;13.90;;;;;;;15.49;51.43;100329.44;5109437;27;20517;-76
2021/05/29 08:10:38;;;;;;;18.30;16.40;;;;;;;15.67;51.03;100328.72;5129504;27;20051;-74
2021/05/29 08:13:05;;;;;;;16.70;12.73;;;;;;;16.16;50.62;100324.13;5128435;27;20047;-76
2021/05/29 08:15:31;;;;;;;21.30;14.57;;;;;;;16.62;49.31;100329.56;5126246;27;20047;-77
2021/05/29 08:17:58;;;;;;;20.35;18.25;;;;;;;16.09;49.50;100333.69;5127081;27;20572;-75
2021/05/29 08:20:24;;;;;;;19.23;17.35;;;;;;;15.70;50.46;100335.56;5128497;27;20078;-75
2021/05/29 08:22:51;;;;;;;19.55;17.45;;;;;;;15.65;51.01;100331.53;5126497;27;20047;-75
2021/05/29 08:25:18;;;;;;;18.88;15.45;;;;;;;15.81;50.58;100327.44;5127402;27;20581;-74
2021/05/29 08:27:45;;;;;;;18.08;16.35;;;;;;;15.92;50.01;100331.78;5127669;27;20043;-77
2021/05/29 08:30:15;;;;;;;16.52;14.73;;;;;;;15.93;50.15;100333.47;5128801;27;20529;-75
2021/05/29 08:32:42;;;;;;;16.58;14.45;;;;;;;16.01;48.67;100330.94;5130507;27;20051;-74
2021/05/29 08:35:09;;;;;;;12.90;11.60;;;;;;;16.13;48.32;100329.75;5127815;27;20486;-76
2021/05/29 08:37:35;;;;;;;13.55;11.63;;;;;;;16.21;47.65;100335.19;5126818;27;20047;-74
2021/05/29 08:40:02;;;;;;;13.57;11.65;;;;;;;16.54;46.68;100322.28;5126020;27;20513;-74
2021/05/29 08:42:29;;;;;;;13.90;12.55;;;;;;;16.79;45.48;100327.91;5129589;27;20046;-75
2021/05/29 08:44:58;;;;;;;18.20;12.95;;;;;;;16.90;45.66;100327.72;5125251;27;20482;-74
2021/05/29 08:47:26;;;;;;;12.60;11.32;;;;;;;16.82;45.62;100324.94;5125609;27;20043;-75
2021/05/29 08:49:52;;;;;;;11.10;9.50;;;;;;;16.81;45.82;100323.25;5126350;27;20062;-75
2021/05/29 08:52:19;;;;;;;15.90;12.45;;;;;;;16.90;45.13;100319.72;5126360;27;20043;-76
2021/05/29 08:54:45;;;;;;;11.75;10.55;;;;;;;16.97;45.05;100327.97;5125862;27;20058;-74
2021/05/29 08:57:14;;;;;;;9.65;8.50;;;;;;;17.41;44.43;100320.03;5126030;27;20051;-75
2021/05/29 08:59:40;;;;;;;9.55;8.55;;;;;;;18.12;43.33;100318.22;5125957;27;20399;-76
2021/05/29 09:02:08;;;;;;;11.57;9.57;;;;;;;18.09;42.24;100318.53;5124805;27;20651;-75
2021/05/29 09:04:34;;;;;;;11.70;9.70;;;;;;;17.83;42.93;100321.19;5124845;27;20047;-76
2021/05/29 09:07:00;;;;;;;11.75;10.00;;;;;;;17.44;43.84;100322.41;5125752;27;20407;-76
2021/05/29 09:09:27;;;;;;;9.77;8.35;;;;;;;16.99;44.79;100334.81;5124839;27;20058;-75
2021/05/29 09:11:56;;;;;;;13.20;9.93;;;;;;;16.65;45.47;100331.06;5128850;27;20051;-75
2021/05/29 09:14:31;;;;;;;8.40;7.50;;;;;;;16.38;46.08;100332.75;5126327;27;20047;-74
2021/05/29 09:17:05;;;;;;;;;;;;;;;16.47;45.92;100329.19;5126894;27;20131;-76
2021/05/29 09:19:58;;;;;;;10.52;8.45;;;;;;;16.62;46.03;100333.06;5125674;27;19919;-75
2021/05/29 09:22:27;;;;;;;11.27;9.10;;;;;;;16.75;46.02;100327.38;5127013;27;20391;-74
2021/05/29 09:25:08;;;;;;;9.27;7.32;;;;;;;16.66;45.58;100325.59;5143923;27;20039;-76
2021/05/29 09:27:35;;;;;;;10.27;8.85;;;;;;;16.11;46.28;100331.72;5138044;27;20510;-76
2021/05/29 09:30:04;;;;;;;14.00;8.93;;;;;;;15.88;47.50;100323.22;5126342;27;20047;-75
2021/05/29 09:32:34;;;;;;;10.15;7.30;;;;;;;16.07;47.39;100325.00;5125253;27;20043;-77
2021/05/29 09:35:11;;;;;;;8.52;7.63;;;;;;;16.21;46.66;100321.88;5127451;27;20143;-74
2021/05/29 09:37:39;;;;;;;7.90;7.13;;;;;;;16.79;45.76;100317.25;5127919;27;20498;-75
2021/05/29 09:40:08;;;;;;;3.83;3.42;;;;;;;16.92;42.38;100314.25;5092096;27;20046;-76
2021/05/29 09:42:37;;;;;;;7.88;5.85;;;;;;;17.14;42.35;100307.59;5128089;27;20118;-76
2021/05/29 09:45:22;;;;;;;6.30;5.05;;;;;;;17.44;42.28;100310.88;5126419;27;20118;-76
2021/05/29 09:48:16;;;;;;;5.85;5.35;;;;;;;17.74;41.01;100302.44;5127044;27;20038;-75
2021/05/29 09:51:05;;;;;;;5.32;4.82;;;;;;;18.06;40.87;100309.00;5125840;27;20471;-76
2021/05/29 09:53:35;;;;;;;9.00;5.05;;;;;;;18.00;40.29;100304.28;5124534;27;20126;-75
2021/05/29 09:56:04;;;;;;;5.22;4.47;;;;;;;18.01;40.62;100311.31;5122770;27;20128;-76
2021/05/29 09:58:49;;;;;;;6.20;5.13;;;;;;;18.11;39.84;100304.03;5126804;27;20054;-76
2021/05/29 10:01:42;;;;;;;7.13;4.93;;;;;;;18.00;40.81;100304.28;5129270;27;20053;-76
2021/05/29 10:04:09;;;;;;;8.13;6.07;;;;;;;17.76;41.53;100300.44;5124922;27;20068;-75
2021/05/29 10:06:37;;;;;;;5.60;4.88;;;;;;;17.75;42.21;100306.78;5126259;27;20054;-74
2021/05/29 10:09:06;;;;;;;5.95;4.28;;;;;;;17.70;41.63;100294.88;5127262;27;20050;-76
2021/05/29 10:11:36;;;;;;;4.25;3.85;;;;;;;17.76;41.79;100300.44;5124477;27;20079;-77
2021/05/29 10:14:04;;;;;;;6.32;4.38;;;;;;;17.81;41.34;100296.44;5106723;27;20447;-76
2021/05/29 10:16:34;;;;;;;5.40;4.53;;;;;;;17.99;40.95;100294.59;5126088;27;20055;-77
2021/05/29 10:19:02;;;;;;;4.80;3.50;;;;;;;18.11;40.66;100304.03;5127687;27;20043;-76
2021/05/29 10:21:31;;;;;;;4.95;4.13;;;;;;;17.96;40.65;100309.09;5129904;27;20047;-78
2021/05/29 10:24:00;;;;;;;5.80;4.10;;;;;;;17.95;41.45;100306.59;5109827;27;20043;-76
2021/05/29 10:26:28;;;;;;;5.10;4.15;;;;;;;18.19;40.71;100300.56;5129553;27;20047;-76
2021/05/29 10:28:56;;;;;;;5.35;4.60;;;;;;;17.95;40.58;100294.09;5130567;27;20583;-76
2021/05/29 10:31:23;;;;;;;3.50;2.70;;;;;;;17.85;39.77;100285.34;5128967;27;20035;-75
2021/05/29 10:33:50;;;;;;;2.50;2.30;;;;;;;17.72;38.43;100290.25;5125439;27;20047;-76
2021/05/29 10:36:47;;;;;;;3.60;2.20;;;;;;;17.52;37.66;100284.22;5125378;27;20609;-76
2021/05/29 10:39:23;;;;;;;2.78;2.38;;;;;;;17.35;36.87;100284.09;5126146;27;20047;-79
2021/05/29 10:42:00;;;;;;;2.50;2.28;;;;;;;17.28;37.44;100282.22;5125854;27;20622;-74
2021/05/29 10:44:38;;;;;;;3.88;2.33;;;;;;;17.38;36.85;100282.97;5125209;27;20051;-75
2021/05/29 10:47:10;;;;;;;4.22;3.05;;;;;;;17.54;37.77;100276.94;5123312;27;20073;-75
2021/05/29 10:49:57;;;;;;;3.30;3.00;;;;;;;18.08;35.77;100288.31;5123977;27;20047;-75
2021/05/29 10:52:48;;;;;;;3.97;2.78;;;;;;;18.26;37.32;100280.22;5123949;27;20039;-76
2021/05/29 10:55:36;;;;;;;3.83;3.30;;;;;;;18.40;38.53;100289.47;5126812;27;20047;-75
2021/05/29 10:58:05;;;;;;;4.57;3.80;;;;;;;17.91;41.61;100294.53;5125360;27;20054;-76
2021/05/29 11:00:52;;;;;;;4.65;3.53;;;;;;;16.58;45.74;100312.16;5129316;27;20054;-76
2021/05/29 11:03:36;;;;;;;4.10;3.67;;;;;;;15.82;50.18;100321.16;5127328;27;20051;-75
2021/05/29 11:09:12;;;;;;;4.38;3.45;;;;;;;14.75;53.54;100316.66;5134257;27;20059;-77
2021/05/29 11:11:54;;;;;;;6.95;3.13;;;;;;;14.66;54.32;100315.63;5128155;27;20056;-75
2021/05/29 11:14:27;;;;;;;7.53;3.75;;;;;;;14.80;55.19;100314.44;5118290;28;20683;-76
2021/05/29 11:17:13;;;;;;;6.95;4.57;;;;;;;14.98;54.53;100311.06;5105860;28;20524;-75
2021/05/29 11:20:00;;;;;;;5.97;3.95;;;;;;;15.15;53.36;100313.06;5118343;28;20055;-75
2021/05/29 11:22:27;;;;;;;5.38;4.18;;;;;;;15.39;52.16;100309.13;5114670;28;20557;-75
2021/05/29 11:24:59;;;;;;;4.72;3.08;;;;;;;15.81;50.43;100311.47;5112431;28;20138;-76
2021/05/29 11:27:29;;;;;;;4.90;3.58;;;;;;;16.11;49.31;100310.41;5115981;28;20051;-75
2021/05/29 11:29:57;;;;;;;4.50;3.38;;;;;;;16.31;47.47;100308.50;5120899;28;20099;-76
2021/05/29 11:32:57;;;;;;;4.38;3.08;;;;;;;16.56;47.36;100306.97;5113553;28;20295;-75